createdAt,value
2018-12-19T00:00:15.850Z,32.10
2018-12-19T00:01:15.823Z,28.90
2018-12-19T00:02:15.842Z,31.40
2018-12-19T00:03:15.827Z,33.60
2018-12-19T00:04:15.801Z,31.20
2018-12-19T00:05:15.798Z,37.00
2018-12-19T00:06:15.767Z,29.50
2018-12-19T00:07:15.759Z,27.10
2018-12-19T00:08:15.769Z,34.80
2018-12-19T00:09:15.749Z,27.40
2018-12-19T00:10:15.743Z,35.10
2018-12-19T00:11:15.730Z,32.20
2018-12-19T00:12:15.715Z,30.30
2018-12-19T00:13:15.716Z,32.80
2018-12-19T00:14:15.699Z,28.60
2018-12-19T00:15:15.681Z,37.90
2018-12-19T00:16:15.661Z,36.70
2018-12-19T00:17:15.671Z,32.20
2018-12-19T00:18:15.701Z,28.60
2018-12-19T00:19:15.688Z,29.00
2018-12-19T00:20:15.626Z,33.10
2018-12-19T00:21:15.626Z,31.70
2018-12-19T00:22:15.608Z,30.60
2018-12-19T00:23:15.598Z,30.70
2018-12-19T00:24:15.590Z,26.10
2018-12-19T00:25:15.586Z,31.80
2018-12-19T00:26:15.563Z,43.90
2018-12-19T00:27:15.561Z,31.30
2018-12-19T00:28:15.539Z,29.60
2018-12-19T00:29:15.535Z,30.30
2018-12-19T00:30:15.544Z,31.30
2018-12-19T00:31:15.520Z,32.20
2018-12-19T00:32:15.509Z,28.50
2018-12-19T00:33:15.486Z,27.70
2018-12-19T00:34:15.476Z,27.80
2018-12-19T00:35:15.502Z,27.10
2018-12-19T00:36:15.468Z,30.90
2018-12-19T00:37:15.436Z,26.30
2018-12-19T00:38:15.438Z,27.00
2018-12-19T00:39:16.124Z,27.00
2018-12-19T00:40:15.413Z,30.80
2018-12-19T00:41:15.435Z,25.20
2018-12-19T00:42:15.394Z,24.10
2018-12-19T00:43:15.382Z,27.70
2018-12-19T00:44:15.367Z,33.30
2018-12-19T00:45:15.361Z,32.60
2018-12-19T00:46:15.368Z,38.40
2018-12-19T00:47:15.329Z,32.20
2018-12-19T00:48:15.322Z,33.00
2018-12-19T00:49:15.311Z,26.90
2018-12-19T00:50:15.310Z,29.60
2018-12-19T00:51:15.325Z,29.40
2018-12-19T00:52:15.274Z,32.50
2018-12-19T00:53:15.275Z,28.20
2018-12-19T00:54:15.266Z,26.00
2018-12-19T00:55:15.249Z,24.60
2018-12-19T00:56:15.249Z,29.30
2018-12-19T00:57:15.247Z,27.20
2018-12-19T00:58:15.232Z,28.30
2018-12-19T00:59:15.201Z,26.80
2018-12-19T01:00:15.190Z,26.30
2018-12-19T01:01:15.193Z,25.40
2018-12-19T01:02:15.215Z,26.20
2018-12-19T01:03:15.175Z,26.30
2018-12-19T01:04:15.159Z,25.10
2018-12-19T01:05:15.135Z,25.60
2018-12-19T01:06:15.133Z,26.80
2018-12-19T01:07:15.138Z,26.50
2018-12-19T01:08:15.145Z,26.10
2018-12-19T01:09:16.014Z,27.40
2018-12-19T01:10:15.091Z,25.00
2018-12-19T01:11:15.067Z,29.70
2018-12-19T01:12:15.073Z,24.00
2018-12-19T01:13:15.095Z,27.30
2018-12-19T01:14:15.049Z,26.00
2018-12-19T01:15:15.037Z,26.30
2018-12-19T01:16:15.033Z,27.20
2018-12-19T01:17:15.012Z,25.40
2018-12-19T01:18:14.992Z,23.50
2018-12-19T01:19:15.020Z,24.90
2018-12-19T01:20:14.985Z,25.00
2018-12-19T01:21:14.973Z,23.40
2018-12-19T01:22:14.971Z,26.50
2018-12-19T01:23:14.953Z,25.80
2018-12-19T01:24:14.930Z,21.90
2018-12-19T01:25:14.950Z,31.70
2018-12-19T01:26:14.925Z,24.90
2018-12-19T01:27:14.918Z,25.90
2018-12-19T01:28:14.894Z,31.50
2018-12-19T01:29:14.882Z,25.30
2018-12-19T01:30:14.894Z,30.10
2018-12-19T01:31:14.859Z,25.90
2018-12-19T01:32:14.858Z,23.00
2018-12-19T01:33:14.855Z,23.40
2018-12-19T01:34:14.858Z,23.40
2018-12-19T01:35:14.823Z,30.00
2018-12-19T01:36:14.819Z,30.10
2018-12-19T01:37:14.791Z,25.00
2018-12-19T01:38:14.804Z,25.60
2018-12-19T01:39:14.782Z,27.90
2018-12-19T01:40:14.766Z,28.70
2018-12-19T01:41:14.755Z,26.00
2018-12-19T01:42:14.740Z,25.30
2018-12-19T01:43:14.743Z,30.20
2018-12-19T01:44:14.734Z,28.20
2018-12-19T01:45:14.712Z,25.70
2018-12-19T01:46:14.704Z,27.80
2018-12-19T01:47:14.691Z,29.70
2018-12-19T01:48:14.705Z,26.10
2018-12-19T01:49:14.684Z,29.20
2018-12-19T01:50:14.661Z,27.20
2018-12-19T01:51:14.633Z,29.50
2018-12-19T01:52:14.634Z,32.30
2018-12-19T01:53:14.629Z,26.30
2018-12-19T01:54:14.638Z,23.70
2018-12-19T01:55:14.602Z,28.40
2018-12-19T01:56:14.608Z,24.90
2018-12-19T01:57:14.592Z,29.20
2018-12-19T01:58:14.600Z,27.10
2018-12-19T01:59:14.591Z,26.80
2018-12-19T02:00:14.573Z,24.30
2018-12-19T02:01:14.543Z,27.70
2018-12-19T02:02:14.537Z,28.10
2018-12-19T02:03:14.530Z,26.30
2018-12-19T02:04:14.506Z,24.60
2018-12-19T02:05:14.526Z,28.50
2018-12-19T02:06:14.504Z,28.10
2018-12-19T02:07:14.479Z,27.90
2018-12-19T02:08:14.485Z,27.20
2018-12-19T02:09:14.448Z,29.30
2018-12-19T02:10:14.469Z,28.20
2018-12-19T02:11:14.436Z,24.30
2018-12-19T02:12:14.507Z,27.70
2018-12-19T02:13:14.419Z,25.50
2018-12-19T02:14:14.417Z,26.80
2018-12-19T02:15:14.385Z,24.60
2018-12-19T02:16:14.412Z,25.40
2018-12-19T02:17:14.375Z,29.30
2018-12-19T02:18:14.382Z,26.20
2018-12-19T02:19:14.350Z,25.60
2018-12-19T02:20:14.349Z,27.40
2018-12-19T02:21:14.341Z,24.20
2018-12-19T02:22:14.333Z,23.00
2018-12-19T02:23:14.305Z,26.40
2018-12-19T02:24:14.314Z,24.80
2018-12-19T02:25:14.293Z,22.80
2018-12-19T02:26:14.289Z,29.30
2018-12-19T02:27:14.255Z,25.90
2018-12-19T02:28:14.242Z,27.80
2018-12-19T02:29:14.246Z,24.30
2018-12-19T02:30:14.269Z,24.80
2018-12-19T02:31:14.229Z,26.10
2018-12-19T02:32:14.211Z,26.90
2018-12-19T02:33:14.195Z,26.50
2018-12-19T02:34:14.196Z,21.80
2018-12-19T02:35:14.203Z,26.40
2018-12-19T02:36:14.169Z,22.60
2018-12-19T02:37:14.158Z,28.10
2018-12-19T02:38:14.152Z,22.30
2018-12-19T02:39:14.139Z,26.90
2018-12-19T02:40:14.129Z,26.70
2018-12-19T02:41:14.143Z,29.50
2018-12-19T02:42:14.091Z,25.10
2018-12-19T02:43:14.102Z,26.60
2018-12-19T02:44:14.084Z,26.70
2018-12-19T02:45:14.061Z,23.20
2018-12-19T02:46:14.060Z,28.30
2018-12-19T02:47:14.064Z,25.50
2018-12-19T02:48:14.036Z,23.30
2018-12-19T02:49:14.022Z,23.40
2018-12-19T02:50:14.016Z,25.90
2018-12-19T02:51:14.011Z,27.10
2018-12-19T02:52:14.051Z,24.50
2018-12-19T02:53:13.973Z,24.40
2018-12-19T02:54:13.966Z,24.00
2018-12-19T02:55:13.973Z,27.90
2018-12-19T02:56:13.944Z,24.30
2018-12-19T02:57:13.955Z,25.80
2018-12-19T02:58:13.971Z,27.20
2018-12-19T02:59:13.909Z,23.50
2018-12-19T03:00:13.906Z,24.90
2018-12-19T03:01:13.907Z,21.20
2018-12-19T03:02:13.909Z,23.20
2018-12-19T03:03:13.888Z,25.50
2018-12-19T03:04:13.888Z,23.10
2018-12-19T03:05:13.861Z,27.30
2018-12-19T03:06:13.844Z,22.40
2018-12-19T03:07:13.834Z,27.20
2018-12-19T03:08:13.813Z,23.90
2018-12-19T03:09:13.868Z,25.20
2018-12-19T03:10:13.809Z,24.90
2018-12-19T03:11:13.800Z,29.00
2018-12-19T03:12:13.788Z,24.10
2018-12-19T03:13:13.779Z,24.60
2018-12-19T03:14:13.773Z,26.50
2018-12-19T03:15:13.752Z,25.30
2018-12-19T03:16:13.746Z,22.90
2018-12-19T03:17:13.720Z,24.70
2018-12-19T03:18:13.744Z,26.90
2018-12-19T03:19:13.695Z,25.10
2018-12-19T03:20:13.684Z,24.50
2018-12-19T03:21:13.689Z,23.90
2018-12-19T03:22:13.681Z,25.40
2018-12-19T03:23:13.664Z,27.20
2018-12-19T03:24:13.688Z,23.70
2018-12-19T03:25:13.652Z,23.30
2018-12-19T03:26:13.624Z,29.90
2018-12-19T03:27:13.620Z,26.30
2018-12-19T03:28:13.608Z,25.70
2018-12-19T03:29:13.616Z,25.20
2018-12-19T03:30:13.604Z,24.90
2018-12-19T03:31:13.569Z,26.00
2018-12-19T03:32:13.574Z,24.90
2018-12-19T03:33:13.552Z,24.30
2018-12-19T03:34:13.566Z,27.20
2018-12-19T03:35:13.533Z,25.90
2018-12-19T03:36:13.569Z,26.40
2018-12-19T03:37:13.502Z,24.50
2018-12-19T03:38:13.491Z,28.00
2018-12-19T03:39:13.477Z,25.60
2018-12-19T03:40:13.470Z,28.70
2018-12-19T03:41:13.465Z,23.40
2018-12-19T03:42:13.473Z,29.10
2018-12-19T03:43:13.448Z,24.60
2018-12-19T03:44:13.445Z,22.30
2018-12-19T03:45:13.414Z,21.70
2018-12-19T03:46:13.419Z,23.40
2018-12-19T03:47:13.438Z,23.80
2018-12-19T03:48:13.401Z,25.80
2018-12-19T03:49:13.395Z,26.00
2018-12-19T03:50:13.364Z,28.10
2018-12-19T03:51:13.361Z,24.30
2018-12-19T03:52:13.358Z,30.20
2018-12-19T03:53:13.333Z,27.00
2018-12-19T03:54:13.348Z,20.00
2018-12-19T03:55:13.334Z,21.60
2018-12-19T03:56:13.313Z,20.80
2018-12-19T03:57:13.290Z,25.30
2018-12-19T03:58:13.301Z,25.90
2018-12-19T03:59:13.276Z,21.90
2018-12-19T04:00:13.300Z,21.90
2018-12-19T04:01:13.254Z,23.70
2018-12-19T04:02:13.249Z,26.20
2018-12-19T04:03:13.237Z,22.00
2018-12-19T04:04:13.230Z,24.50
2018-12-19T04:05:13.218Z,24.70
2018-12-19T04:06:13.228Z,28.90
2018-12-19T04:07:13.181Z,20.60
2018-12-19T04:08:13.189Z,26.00
2018-12-19T04:09:13.170Z,22.00
2018-12-19T04:10:13.167Z,22.70
2018-12-19T04:11:13.186Z,22.50
2018-12-19T04:12:13.126Z,26.30
2018-12-19T04:13:13.126Z,24.30
2018-12-19T04:14:13.109Z,21.30
2018-12-19T04:15:13.113Z,23.10
2018-12-19T04:16:13.085Z,23.70
2018-12-19T04:17:13.092Z,19.40
2018-12-19T04:18:13.057Z,22.80
2018-12-19T04:19:13.117Z,23.60
2018-12-19T04:20:13.054Z,19.90
2018-12-19T04:21:13.049Z,21.00
2018-12-19T04:22:13.025Z,20.40
2018-12-19T04:23:13.038Z,22.20
2018-12-19T04:24:12.996Z,24.30
2018-12-19T04:25:13.012Z,22.00
2018-12-19T04:26:12.991Z,21.80
2018-12-19T04:27:12.988Z,22.50
2018-12-19T04:28:12.960Z,27.20
2018-12-19T04:29:12.962Z,21.70
2018-12-19T04:30:12.939Z,22.50
2018-12-19T04:31:12.924Z,21.30
2018-12-19T04:32:12.919Z,20.80
2018-12-19T04:33:12.922Z,21.20
2018-12-19T04:34:12.900Z,25.60
2018-12-19T04:35:12.908Z,21.90
2018-12-19T04:36:12.870Z,22.40
2018-12-19T04:37:12.890Z,24.00
2018-12-19T04:38:12.852Z,21.60
2018-12-19T04:39:12.863Z,21.10
2018-12-19T04:40:12.872Z,20.90
2018-12-19T04:41:12.810Z,24.30
2018-12-19T04:42:12.812Z,24.80
2018-12-19T04:43:12.819Z,22.40
2018-12-19T04:44:12.807Z,20.70
2018-12-19T04:45:12.805Z,25.00
2018-12-19T04:46:12.776Z,22.60
2018-12-19T04:47:12.838Z,23.00
2018-12-19T04:48:12.793Z,21.40
2018-12-19T04:49:12.726Z,22.80
2018-12-19T04:50:12.724Z,23.60
2018-12-19T04:51:12.713Z,21.50
2018-12-19T04:52:12.725Z,19.60
2018-12-19T04:53:14.552Z,23.00
2018-12-19T04:54:12.716Z,20.30
2018-12-19T04:55:12.668Z,23.80
2018-12-19T04:56:12.664Z,19.30
2018-12-19T04:57:12.650Z,27.00
2018-12-19T04:58:12.655Z,25.50
2018-12-19T04:59:12.635Z,20.30
2018-12-19T05:00:12.770Z,20.70
2018-12-19T05:01:12.595Z,23.70
2018-12-19T05:02:12.608Z,22.70
2018-12-19T05:03:12.582Z,22.60
2018-12-19T05:04:12.579Z,22.50
2018-12-19T05:05:12.598Z,25.10
2018-12-19T05:06:12.549Z,23.00
2018-12-19T05:07:12.536Z,20.20
2018-12-19T05:08:12.532Z,21.80
2018-12-19T05:09:12.530Z,20.80
2018-12-19T05:10:12.615Z,26.60
2018-12-19T05:11:12.537Z,24.10
2018-12-19T05:12:12.508Z,22.80
2018-12-19T05:13:12.470Z,25.50
2018-12-19T05:14:12.477Z,22.10
2018-12-19T05:15:12.459Z,26.30
2018-12-19T05:16:12.436Z,26.00
2018-12-19T05:17:12.469Z,22.40
2018-12-19T05:18:12.428Z,26.10
2018-12-19T05:19:12.417Z,24.30
2018-12-19T05:20:12.417Z,19.50
2018-12-19T05:21:12.393Z,22.10
2018-12-19T05:22:12.400Z,24.20
2018-12-19T05:23:12.370Z,22.70
2018-12-19T05:24:12.384Z,21.40
2018-12-19T05:25:12.355Z,24.40
2018-12-19T05:26:12.328Z,23.50
2018-12-19T05:27:12.315Z,20.50
2018-12-19T05:28:12.305Z,21.00
2018-12-19T05:29:12.308Z,21.00
2018-12-19T05:30:12.324Z,22.50
2018-12-19T05:31:12.283Z,20.20
2018-12-19T05:32:12.269Z,22.70
2018-12-19T05:33:12.264Z,22.40
2018-12-19T05:34:12.237Z,24.70
2018-12-19T05:35:12.260Z,21.50
2018-12-19T05:36:12.221Z,19.30
2018-12-19T05:37:12.224Z,23.20
2018-12-19T05:38:12.206Z,24.10
2018-12-19T05:39:12.203Z,20.40
2018-12-19T05:40:18.580Z,19.80
2018-12-19T05:41:13.184Z,23.20
2018-12-19T05:42:12.171Z,24.10
2018-12-19T05:43:12.167Z,20.30
2018-12-19T05:44:12.143Z,19.90
2018-12-19T05:45:12.128Z,21.60
2018-12-19T05:46:12.151Z,21.40
2018-12-19T05:47:12.115Z,20.80
2018-12-19T05:48:12.086Z,20.30
2018-12-19T05:49:12.103Z,24.70
2018-12-19T05:50:12.136Z,22.90
2018-12-19T05:51:12.080Z,21.70
2018-12-19T05:52:12.085Z,23.60
2018-12-19T05:53:12.028Z,21.30
2018-12-19T05:54:12.033Z,21.50
2018-12-19T05:55:12.036Z,20.90
2018-12-19T05:56:12.018Z,21.00
2018-12-19T05:57:12.020Z,23.70
2018-12-19T05:58:11.986Z,20.30
2018-12-19T05:59:11.986Z,18.50
2018-12-19T06:00:11.964Z,18.60
2018-12-19T06:01:11.957Z,20.50
2018-12-19T06:02:11.979Z,21.30
2018-12-19T06:03:11.932Z,21.90
2018-12-19T06:04:11.927Z,19.90
2018-12-19T06:05:11.904Z,18.70
2018-12-19T06:06:11.898Z,19.00
2018-12-19T06:07:11.883Z,22.00
2018-12-19T06:08:11.916Z,19.40
2018-12-19T06:09:11.891Z,20.40
2018-12-19T06:10:11.868Z,21.00
2018-12-19T06:11:11.844Z,20.20
2018-12-19T06:12:11.850Z,21.40
2018-12-19T06:13:11.828Z,19.40
2018-12-19T06:14:11.839Z,20.50
2018-12-19T06:15:11.805Z,20.50
2018-12-19T06:16:11.796Z,20.00
2018-12-19T06:17:11.771Z,20.30
2018-12-19T06:18:11.789Z,18.20
2018-12-19T06:19:11.757Z,20.80
2018-12-19T06:20:11.756Z,19.20
2018-12-19T06:21:11.741Z,21.20
2018-12-19T06:22:11.750Z,20.90
2018-12-19T06:23:11.718Z,20.60
2018-12-19T06:24:11.714Z,19.30
2018-12-19T06:25:11.721Z,16.40
2018-12-19T06:26:12.169Z,21.80
2018-12-19T06:27:11.676Z,19.30
2018-12-19T06:28:11.678Z,18.40
2018-12-19T06:29:11.641Z,19.50
2018-12-19T06:30:11.631Z,25.20
2018-12-19T06:31:11.633Z,20.70
2018-12-19T06:32:11.647Z,19.60
2018-12-19T06:33:11.641Z,21.30
2018-12-19T06:34:11.620Z,20.40
2018-12-19T06:35:11.597Z,26.60
2018-12-19T06:36:11.587Z,19.60
2018-12-19T06:37:11.567Z,22.40
2018-12-19T06:38:11.577Z,23.90
2018-12-19T06:39:11.541Z,22.90
2018-12-19T06:40:11.532Z,22.40
2018-12-19T06:41:11.519Z,19.90
2018-12-19T06:42:11.538Z,20.20
2018-12-19T06:43:11.506Z,20.70
2018-12-19T06:44:11.481Z,20.10
2018-12-19T06:45:11.482Z,17.00
2018-12-19T06:46:11.491Z,22.40
2018-12-19T06:47:11.458Z,20.20
2018-12-19T06:48:11.458Z,21.00
2018-12-19T06:49:11.438Z,21.60
2018-12-19T06:50:11.424Z,18.70
2018-12-19T06:51:11.414Z,19.30
2018-12-19T06:52:11.408Z,20.70
2018-12-19T06:53:11.396Z,21.40
2018-12-19T06:54:11.386Z,20.70
2018-12-19T06:55:11.377Z,20.40
2018-12-19T06:56:11.381Z,20.80
2018-12-19T06:57:11.374Z,16.50
2018-12-19T06:58:11.352Z,20.90
2018-12-19T06:59:11.345Z,20.50
2018-12-19T07:00:11.325Z,19.90
2018-12-19T07:01:11.295Z,21.90
2018-12-19T07:02:11.317Z,21.40
2018-12-19T07:03:11.287Z,18.90
2018-12-19T07:04:11.268Z,21.20
2018-12-19T07:05:11.277Z,19.70
2018-12-19T07:06:11.258Z,24.80
2018-12-19T07:07:11.266Z,23.10
2018-12-19T07:08:11.232Z,20.60
2018-12-19T07:09:11.218Z,18.50
2018-12-19T07:10:11.211Z,19.70
2018-12-19T07:11:11.189Z,25.20
2018-12-19T07:12:11.188Z,21.60
2018-12-19T07:13:11.202Z,22.40
2018-12-19T07:14:11.167Z,19.70
2018-12-19T07:15:11.164Z,20.60
2018-12-19T07:16:11.138Z,21.20
2018-12-19T07:17:11.140Z,21.30
2018-12-19T07:18:11.174Z,19.30
2018-12-19T07:19:11.125Z,19.20
2018-12-19T07:20:11.108Z,17.80
2018-12-19T07:21:11.081Z,18.60
2018-12-19T07:22:11.071Z,25.10
2018-12-19T07:23:11.084Z,22.60
2018-12-19T07:24:11.064Z,19.20
2018-12-19T07:25:11.066Z,20.50
2018-12-19T07:26:11.050Z,24.30
2018-12-19T07:27:11.029Z,22.10
2018-12-19T07:28:11.023Z,19.10
2018-12-19T07:29:11.016Z,20.60
2018-12-19T07:30:10.994Z,20.00
2018-12-19T07:31:10.988Z,24.40
2018-12-19T07:32:10.989Z,25.40
2018-12-19T07:33:10.962Z,19.90
2018-12-19T07:34:10.956Z,20.30
2018-12-19T07:35:10.964Z,18.80
2018-12-19T07:36:10.935Z,21.60
2018-12-19T07:37:10.928Z,17.40
2018-12-19T07:38:10.905Z,19.90
2018-12-19T07:39:10.902Z,22.90
2018-12-19T07:40:10.901Z,19.50
2018-12-19T07:41:10.903Z,18.30
2018-12-19T07:42:10.870Z,18.30
2018-12-19T07:43:10.855Z,20.80
2018-12-19T07:44:10.838Z,19.90
2018-12-19T07:45:10.840Z,21.30
2018-12-19T07:46:10.849Z,21.20
2018-12-19T07:47:10.846Z,18.70
2018-12-19T07:48:10.796Z,19.30
2018-12-19T07:49:10.800Z,18.80
2018-12-19T07:50:10.796Z,20.00
2018-12-19T07:51:10.806Z,19.00
2018-12-19T07:52:10.772Z,18.50
2018-12-19T07:53:10.790Z,19.40
2018-12-19T07:54:10.728Z,24.90
2018-12-19T07:55:10.771Z,18.80
2018-12-19T07:56:10.717Z,23.20
2018-12-19T07:57:10.716Z,19.50
2018-12-19T07:58:10.708Z,18.90
2018-12-19T07:59:10.829Z,21.50
2018-12-19T08:00:10.666Z,20.30
2018-12-19T08:01:10.671Z,19.80
2018-12-19T08:02:10.641Z,19.90
2018-12-19T08:03:10.655Z,19.00
2018-12-19T08:04:10.631Z,17.30
2018-12-19T08:05:10.635Z,18.00
2018-12-19T08:06:10.605Z,21.90
2018-12-19T08:07:10.592Z,18.50
2018-12-19T08:08:10.573Z,20.70
2018-12-19T08:09:10.591Z,21.60
2018-12-19T08:10:10.593Z,18.90
2018-12-19T08:11:10.552Z,19.10
2018-12-19T08:12:10.552Z,21.00
2018-12-19T08:13:10.566Z,21.10
2018-12-19T08:14:10.521Z,21.80
2018-12-19T08:15:10.517Z,22.50
2018-12-19T08:16:10.527Z,19.40
2018-12-19T08:17:10.489Z,17.90
2018-12-19T08:18:10.486Z,21.80
2018-12-19T08:19:10.465Z,21.60
2018-12-19T08:20:10.471Z,20.40
2018-12-19T08:21:10.455Z,17.10
2018-12-19T08:22:10.468Z,14.50
2018-12-19T08:23:10.437Z,21.40
2018-12-19T08:24:10.426Z,17.30
2018-12-19T08:25:10.401Z,18.50
2018-12-19T08:26:10.387Z,20.70
2018-12-19T08:27:10.398Z,17.60
2018-12-19T08:28:10.364Z,15.60
2018-12-19T08:29:10.357Z,18.70
2018-12-19T08:30:10.353Z,21.20
2018-12-19T08:31:10.340Z,19.00
2018-12-19T08:32:10.351Z,19.20
2018-12-19T08:33:10.326Z,18.50
2018-12-19T08:34:10.303Z,19.40
2018-12-19T08:35:10.292Z,19.80
2018-12-19T08:36:10.289Z,19.20
2018-12-19T08:37:10.271Z,17.80
2018-12-19T08:38:10.259Z,21.30
2018-12-19T08:39:10.267Z,20.30
2018-12-19T08:40:10.236Z,18.10
2018-12-19T08:41:10.247Z,15.80
2018-12-19T08:42:10.227Z,15.70
2018-12-19T08:43:10.204Z,19.10
2018-12-19T08:44:10.206Z,23.10
2018-12-19T08:45:10.198Z,17.90
2018-12-19T08:46:14.487Z,20.30
2018-12-19T08:47:10.215Z,21.60
2018-12-19T08:48:10.147Z,19.20
2018-12-19T08:49:10.139Z,19.20
2018-12-19T08:50:10.176Z,20.60
2018-12-19T08:51:10.118Z,16.70
2018-12-19T08:52:10.113Z,16.50
2018-12-19T08:53:10.121Z,19.50
2018-12-19T08:54:10.107Z,19.30
2018-12-19T08:55:10.083Z,18.30
2018-12-19T08:56:10.099Z,18.00
2018-12-19T08:57:10.055Z,18.00
2018-12-19T08:58:10.052Z,17.80
2018-12-19T08:59:10.015Z,16.10
2018-12-19T09:00:10.023Z,16.10
2018-12-19T09:01:10.053Z,21.80
2018-12-19T09:02:10.009Z,18.50
2018-12-19T09:03:09.995Z,19.90
2018-12-19T09:04:09.977Z,17.80
2018-12-19T09:05:09.956Z,19.70
2018-12-19T09:06:09.952Z,18.10
2018-12-19T09:07:09.966Z,16.80
2018-12-19T09:08:09.930Z,14.70
2018-12-19T09:09:09.993Z,20.00
2018-12-19T09:10:09.910Z,18.90
2018-12-19T09:11:09.893Z,16.40
2018-12-19T09:12:09.915Z,16.50
2018-12-19T09:13:09.895Z,15.20
2018-12-19T09:14:09.878Z,19.10
2018-12-19T09:15:09.872Z,18.30
2018-12-19T09:16:09.845Z,20.50
2018-12-19T09:17:09.868Z,17.60
2018-12-19T09:18:09.821Z,17.60
2018-12-19T09:19:09.821Z,18.70
2018-12-19T09:20:09.820Z,18.80
2018-12-19T09:21:09.808Z,18.90
2018-12-19T09:22:09.783Z,18.00
2018-12-19T09:23:09.765Z,21.00
2018-12-19T09:24:09.814Z,20.10
2018-12-19T09:25:09.760Z,16.20
2018-12-19T09:26:09.748Z,16.60
2018-12-19T09:27:09.730Z,16.50
2018-12-19T09:28:09.725Z,21.70
2018-12-19T09:29:09.703Z,19.50
2018-12-19T09:30:09.706Z,17.00
2018-12-19T09:31:09.675Z,18.90
2018-12-19T09:32:09.671Z,15.80
2018-12-19T09:33:09.675Z,18.10
2018-12-19T09:34:09.665Z,19.90
2018-12-19T09:35:09.644Z,19.90
2018-12-19T09:36:09.674Z,18.60
2018-12-19T09:37:09.616Z,18.20
2018-12-19T09:38:09.613Z,16.80
2018-12-19T09:39:09.634Z,21.30
2018-12-19T09:40:09.585Z,16.50
2018-12-19T09:41:12.409Z,17.10
2018-12-19T09:42:09.582Z,15.90
2018-12-19T09:43:09.560Z,17.20
2018-12-19T09:44:09.548Z,18.50
2018-12-19T09:45:09.552Z,17.20
2018-12-19T09:46:09.519Z,19.70
2018-12-19T09:47:09.520Z,17.90
2018-12-19T09:48:09.525Z,19.60
2018-12-19T09:49:12.497Z,18.50
2018-12-19T09:50:09.481Z,20.10
2018-12-19T09:51:09.456Z,16.90
2018-12-19T09:52:09.445Z,17.00
2018-12-19T09:53:09.443Z,19.00
2018-12-19T09:54:09.451Z,20.50
2018-12-19T09:55:09.419Z,17.90
2018-12-19T09:56:09.400Z,19.80
2018-12-19T09:57:09.408Z,16.80
2018-12-19T09:58:09.385Z,17.30
2018-12-19T09:59:09.397Z,16.80
2018-12-19T10:00:09.375Z,17.70
2018-12-19T10:01:09.361Z,17.40
2018-12-19T10:02:09.358Z,18.10
2018-12-19T10:03:09.325Z,17.10
2018-12-19T10:04:09.331Z,17.90
2018-12-19T10:05:09.321Z,19.10
2018-12-19T10:06:09.308Z,20.90
2018-12-19T10:07:09.304Z,17.00
2018-12-19T10:08:09.308Z,16.90
2018-12-19T10:09:14.794Z,20.10
2018-12-19T10:10:10.260Z,20.80
2018-12-19T10:11:09.256Z,18.10
2018-12-19T10:12:09.248Z,19.70
2018-12-19T10:13:09.274Z,18.20
2018-12-19T10:14:09.236Z,18.70
2018-12-19T10:15:09.200Z,21.10
2018-12-19T10:16:09.195Z,19.50
2018-12-19T10:17:09.189Z,19.00
2018-12-19T10:18:09.179Z,19.30
2018-12-19T10:19:09.217Z,21.40
2018-12-19T10:20:09.159Z,17.60
2018-12-19T10:21:09.156Z,17.40
2018-12-19T10:22:09.128Z,16.80
2018-12-19T10:23:09.116Z,18.10
2018-12-19T10:24:09.120Z,22.00
2018-12-19T10:25:09.132Z,19.10
2018-12-19T10:26:09.122Z,19.10
2018-12-19T10:27:09.067Z,19.10
2018-12-19T10:28:09.057Z,19.30
2018-12-19T10:29:09.060Z,19.10
2018-12-19T10:30:09.048Z,21.20
2018-12-19T10:31:09.054Z,16.60
2018-12-19T10:32:09.029Z,20.30
2018-12-19T10:33:09.000Z,18.30
2018-12-19T10:34:08.996Z,19.20
2018-12-19T10:35:09.003Z,18.00
2018-12-19T10:36:08.983Z,17.70
2018-12-19T10:37:08.970Z,16.20
2018-12-19T10:38:08.953Z,16.80
2018-12-19T10:39:08.949Z,15.60
2018-12-19T10:40:08.944Z,15.90
2018-12-19T10:41:08.955Z,19.60
2018-12-19T10:42:08.911Z,16.60
2018-12-19T10:43:08.926Z,19.80
2018-12-19T10:44:08.893Z,22.50
2018-12-19T10:45:08.876Z,25.30
2018-12-19T10:46:08.870Z,18.80
2018-12-19T10:47:08.867Z,16.40
2018-12-19T10:48:08.853Z,18.10
2018-12-19T10:49:08.844Z,20.30
2018-12-19T10:50:08.837Z,18.10
2018-12-19T10:51:08.859Z,18.20
2018-12-19T10:52:08.848Z,17.20
2018-12-19T10:53:08.793Z,17.60
2018-12-19T10:54:08.805Z,18.10
2018-12-19T10:55:08.766Z,18.90
2018-12-19T10:56:08.757Z,15.20
2018-12-19T10:57:08.752Z,23.50
2018-12-19T10:58:08.759Z,16.70
2018-12-19T10:59:08.734Z,16.00
2018-12-19T11:00:08.735Z,18.60
2018-12-19T11:01:08.706Z,18.60
2018-12-19T11:02:08.701Z,18.20
2018-12-19T11:03:08.711Z,17.50
2018-12-19T11:04:08.689Z,18.60
2018-12-19T11:05:08.660Z,17.90
2018-12-19T11:06:08.661Z,16.30
2018-12-19T11:07:08.680Z,15.90
2018-12-19T11:08:08.649Z,17.10
2018-12-19T11:09:08.630Z,19.00
2018-12-19T11:10:08.624Z,16.30
2018-12-19T11:11:08.607Z,16.30
2018-12-19T11:12:08.622Z,20.40
2018-12-19T11:13:08.578Z,16.20
2018-12-19T11:14:08.589Z,17.40
2018-12-19T11:15:08.556Z,19.60
2018-12-19T11:16:08.555Z,17.60
2018-12-19T11:17:08.533Z,20.50
2018-12-19T11:18:08.534Z,16.90
2018-12-19T11:19:08.505Z,16.80
2018-12-19T11:20:08.537Z,17.20
2018-12-19T11:21:08.490Z,18.30
2018-12-19T11:22:08.509Z,20.40
2018-12-19T11:23:08.491Z,16.20
2018-12-19T11:24:08.481Z,20.70
2018-12-19T11:25:08.498Z,19.30
2018-12-19T11:26:08.421Z,17.60
2018-12-19T11:27:08.424Z,16.20
2018-12-19T11:28:08.414Z,15.40
2018-12-19T11:29:08.424Z,18.10
2018-12-19T11:30:08.384Z,17.00
2018-12-19T11:31:08.421Z,21.40
2018-12-19T11:32:08.383Z,17.70
2018-12-19T11:33:08.380Z,18.80
2018-12-19T11:34:08.352Z,20.00
2018-12-19T11:35:08.358Z,18.40
2018-12-19T11:36:08.342Z,16.20
2018-12-19T11:37:08.332Z,16.40
2018-12-19T11:38:08.308Z,17.40
2018-12-19T11:39:08.310Z,17.80
2018-12-19T11:40:08.284Z,18.60
2018-12-19T11:41:08.290Z,19.70
2018-12-19T11:42:08.332Z,18.40
2018-12-19T11:43:08.255Z,19.70
2018-12-19T11:44:08.246Z,16.00
2018-12-19T11:45:08.241Z,16.70
2018-12-19T11:46:08.221Z,18.80
2018-12-19T11:47:08.237Z,17.70
2018-12-19T11:48:08.194Z,18.20
2018-12-19T11:49:08.179Z,17.20
2018-12-19T11:50:08.168Z,16.70
2018-12-19T11:51:08.170Z,17.80
2018-12-19T11:52:08.191Z,17.90
2018-12-19T11:53:08.141Z,17.30
2018-12-19T11:54:08.131Z,18.50
2018-12-19T11:55:08.113Z,18.80
2018-12-19T11:56:08.123Z,16.90
2018-12-19T11:57:08.093Z,18.00
2018-12-19T11:58:08.110Z,17.90
2018-12-19T11:59:08.070Z,15.00
2018-12-19T12:00:08.070Z,19.80
2018-12-19T12:01:08.069Z,16.10
2018-12-19T12:02:08.066Z,16.40
2018-12-19T12:03:08.031Z,17.20
2018-12-19T12:04:08.038Z,17.40
2018-12-19T12:05:08.022Z,19.00
2018-12-19T12:06:08.000Z,17.70
2018-12-19T12:07:08.024Z,17.20
2018-12-19T12:08:07.992Z,15.50
2018-12-19T12:09:07.972Z,20.80
2018-12-19T12:10:07.944Z,19.30
2018-12-19T12:11:07.932Z,16.70
2018-12-19T12:12:07.951Z,18.00
2018-12-19T12:13:07.924Z,16.60
2018-12-19T12:14:07.930Z,16.00
2018-12-19T12:15:07.909Z,19.00
2018-12-19T12:16:07.888Z,17.40
2018-12-19T12:17:08.830Z,18.00
2018-12-19T12:18:07.877Z,17.40
2018-12-19T12:19:07.864Z,20.80
2018-12-19T12:20:07.866Z,19.50
2018-12-19T12:21:07.833Z,18.10
2018-12-19T12:22:07.826Z,16.10
2018-12-19T12:23:07.800Z,17.10
2018-12-19T12:24:07.832Z,17.10
2018-12-19T12:25:07.798Z,17.00
2018-12-19T12:26:07.781Z,16.70
2018-12-19T12:27:07.788Z,19.20
2018-12-19T12:28:07.785Z,19.90
2018-12-19T12:29:07.760Z,16.50
2018-12-19T12:30:07.729Z,17.80
2018-12-19T12:31:07.736Z,15.90
2018-12-19T12:32:07.710Z,17.70
2018-12-19T12:33:07.710Z,16.20
2018-12-19T12:34:07.717Z,16.60
2018-12-19T12:35:07.669Z,20.00
2018-12-19T12:36:07.661Z,19.80
2018-12-19T12:37:07.660Z,17.10
2018-12-19T12:38:07.656Z,16.10
2018-12-19T12:39:07.662Z,16.90
2018-12-19T12:40:07.626Z,17.60
2018-12-19T12:41:07.609Z,18.20
2018-12-19T12:42:07.606Z,16.40
2018-12-19T12:43:07.601Z,19.60
2018-12-19T12:44:07.623Z,21.30
2018-12-19T12:45:07.605Z,16.70
2018-12-19T12:46:07.566Z,22.00
2018-12-19T12:47:07.547Z,15.60
2018-12-19T12:48:07.556Z,17.40
2018-12-19T12:49:07.519Z,18.30
2018-12-19T12:50:07.568Z,14.20
2018-12-19T12:51:07.533Z,15.90
2018-12-19T12:52:07.499Z,16.00